sensor_id;sensor_type;location;lat;lon;timestamp;P1;durP1;ratioP1;P2;durP2;ratioP2
28455;SDS011;15682;56.742;38.866;2022-11-15T00:01:38;4.2;;;0.9;;
28455;SDS011;15682;56.742;38.866;2022-11-15T00:03:38;4.1;;;0.8;;
28455;SDS011;15682;56.742;38.866;2022-11-15T00:05:38;4.4;;;1.1;;
28455;SDS011;15682;56.742;38.866;2022-11-15T00:07:38;4.1;;;0.8;;
28455;SDS011;15682;56.742;38.866;2022-11-15T00:09:38;3.9;;;0.7;;
28455;SDS011;15682;56.742;38.866;2022-11-15T00:11:37;5.2;;;1.2;;
28455;SDS011;15682;56.742;38.866;2022-11-15T00:13:37;6.3;;;1.0;;
28455;SDS011;15682;56.742;38.866;2022-11-15T00:15:38;6.0;;;0.8;;
28455;SDS011;15682;56.742;38.866;2022-11-15T00:17:37;5.0;;;0.7;;
28455;SDS011;15682;56.742;38.866;2022-11-15T00:19:37;5.0;;;1.1;;
28455;SDS011;15682;56.742;38.866;2022-11-15T00:21:37;4.1;;;0.8;;
28455;SDS011;15682;56.742;38.866;2022-11-15T00:23:37;7.2;;;1.0;;
28455;SDS011;15682;56.742;38.866;2022-11-15T00:25:37;4.8;;;0.8;;
28455;SDS011;15682;56.742;38.866;2022-11-15T00:27:36;4.8;;;0.9;;
28455;SDS011;15682;56.742;38.866;2022-11-15T00:29:36;6.3;;;1.2;;
28455;SDS011;15682;56.742;38.866;2022-11-15T00:31:36;4.5;;;1.0;;
28455;SDS011;15682;56.742;38.866;2022-11-15T00:33:36;7.1;;;1.1;;
28455;SDS011;15682;56.742;38.866;2022-11-15T00:35:36;7.2;;;1.1;;
28455;SDS011;15682;56.742;38.866;2022-11-15T00:37:36;6.6;;;1.1;;
28455;SDS011;15682;56.742;38.866;2022-11-15T00:39:36;5.4;;;1.0;;
28455;SDS011;15682;56.742;38.866;2022-11-15T00:41:36;5.5;;;1.1;;
28455;SDS011;15682;56.742;38.866;2022-11-15T00:43:35;4.0;;;0.8;;
28455;SDS011;15682;56.742;38.866;2022-11-15T00:45:35;7.0;;;0.9;;
28455;SDS011;15682;56.742;38.866;2022-11-15T00:47:35;5.6;;;1.0;;
28455;SDS011;15682;56.742;38.866;2022-11-15T00:49:35;3.4;;;1.0;;
28455;SDS011;15682;56.742;38.866;2022-11-15T00:51:35;4.7;;;0.9;;
28455;SDS011;15682;56.742;38.866;2022-11-15T00:53:35;3.6;;;0.8;;
28455;SDS011;15682;56.742;38.866;2022-11-15T00:55:35;5.0;;;0.9;;
28455;SDS011;15682;56.742;38.866;2022-11-15T00:57:34;4.1;;;1.0;;
28455;SDS011;15682;56.742;38.866;2022-11-15T00:59:34;4.3;;;1.0;;
28455;SDS011;15682;56.742;38.866;2022-11-15T01:01:34;7.6;;;0.9;;
28455;SDS011;15682;56.742;38.866;2022-11-15T01:03:34;6.4;;;1.1;;
28455;SDS011;15682;56.742;38.866;2022-11-15T01:05:36;5.4;;;1.2;;
28455;SDS011;15682;56.742;38.866;2022-11-15T01:07:34;6.0;;;1.3;;
28455;SDS011;15682;56.742;38.866;2022-11-15T01:09:34;7.5;;;1.3;;
28455;SDS011;15682;56.742;38.866;2022-11-15T01:11:34;6.4;;;1.0;;
28455;SDS011;15682;56.742;38.866;2022-11-15T01:13:34;3.1;;;0.8;;
28455;SDS011;15682;56.742;38.866;2022-11-15T01:15:33;5.7;;;1.3;;
28455;SDS011;15682;56.742;38.866;2022-11-15T01:17:33;5.5;;;1.3;;
28455;SDS011;15682;56.742;38.866;2022-11-15T01:19:33;4.0;;;0.8;;
28455;SDS011;15682;56.742;38.866;2022-11-15T01:21:33;5.5;;;0.8;;
28455;SDS011;15682;56.742;38.866;2022-11-15T01:23:33;6.0;;;1.1;;
28455;SDS011;15682;56.742;38.866;2022-11-15T01:25:33;3.5;;;0.9;;
28455;SDS011;15682;56.742;38.866;2022-11-15T01:27:32;5.2;;;0.9;;
28455;SDS011;15682;56.742;38.866;2022-11-15T01:29:32;6.2;;;0.9;;
28455;SDS011;15682;56.742;38.866;2022-11-15T01:31:32;5.3;;;1.1;;
28455;SDS011;15682;56.742;38.866;2022-11-15T01:33:33;5.9;;;0.9;;
28455;SDS011;15682;56.742;38.866;2022-11-15T01:35:32;7.0;;;1.0;;
28455;SDS011;15682;56.742;38.866;2022-11-15T01:37:32;5.5;;;1.0;;
28455;SDS011;15682;56.742;38.866;2022-11-15T01:39:32;6.7;;;1.2;;
28455;SDS011;15682;56.742;38.866;2022-11-15T01:41:32;5.0;;;1.0;;
28455;SDS011;15682;56.742;38.866;2022-11-15T01:43:32;3.8;;;1.1;;
28455;SDS011;15682;56.742;38.866;2022-11-15T01:45:31;8.3;;;1.0;;
28455;SDS011;15682;56.742;38.866;2022-11-15T01:47:32;7.4;;;1.2;;
28455;SDS011;15682;56.742;38.866;2022-11-15T01:49:32;3.7;;;0.8;;
28455;SDS011;15682;56.742;38.866;2022-11-15T01:51:31;4.7;;;1.2;;
28455;SDS011;15682;56.742;38.866;2022-11-15T01:53:31;6.6;;;1.0;;
28455;SDS011;15682;56.742;38.866;2022-11-15T01:55:30;6.0;;;0.9;;
28455;SDS011;15682;56.742;38.866;2022-11-15T01:57:30;3.0;;;0.9;;
28455;SDS011;15682;56.742;38.866;2022-11-15T01:59:31;6.7;;;1.0;;
28455;SDS011;15682;56.742;38.866;2022-11-15T02:01:30;8.9;;;1.0;;
28455;SDS011;15682;56.742;38.866;2022-11-15T02:03:32;5.0;;;1.2;;
28455;SDS011;15682;56.742;38.866;2022-11-15T02:05:30;5.4;;;1.0;;
28455;SDS011;15682;56.742;38.866;2022-11-15T02:07:30;6.4;;;1.2;;
28455;SDS011;15682;56.742;38.866;2022-11-15T02:09:29;3.7;;;1.1;;
28455;SDS011;15682;56.742;38.866;2022-11-15T02:11:29;5.6;;;1.4;;
28455;SDS011;15682;56.742;38.866;2022-11-15T02:13:29;6.3;;;0.9;;
28455;SDS011;15682;56.742;38.866;2022-11-15T02:15:30;7.2;;;0.9;;
28455;SDS011;15682;56.742;38.866;2022-11-15T02:17:32;7.3;;;1.4;;
28455;SDS011;15682;56.742;38.866;2022-11-15T02:19:35;5.5;;;1.1;;
28455;SDS011;15682;56.742;38.866;2022-11-15T02:21:29;5.6;;;0.9;;
28455;SDS011;15682;56.742;38.866;2022-11-15T02:23:37;7.2;;;1.3;;
28455;SDS011;15682;56.742;38.866;2022-11-15T02:25:34;8.7;;;1.3;;
28455;SDS011;15682;56.742;38.866;2022-11-15T02:27:39;9.2;;;1.2;;
28455;SDS011;15682;56.742;38.866;2022-11-15T02:29:30;9.2;;;1.2;;
28455;SDS011;15682;56.742;38.866;2022-11-15T02:31:28;6.4;;;1.2;;
28455;SDS011;15682;56.742;38.866;2022-11-15T02:33:30;4.9;;;0.7;;
28455;SDS011;15682;56.742;38.866;2022-11-15T02:35:29;3.9;;;1.0;;
28455;SDS011;15682;56.742;38.866;2022-11-15T02:37:29;5.9;;;1.1;;
28455;SDS011;15682;56.742;38.866;2022-11-15T02:39:30;4.0;;;1.0;;
28455;SDS011;15682;56.742;38.866;2022-11-15T02:41:28;7.1;;;1.3;;
28455;SDS011;15682;56.742;38.866;2022-11-15T02:43:28;7.6;;;1.0;;
28455;SDS011;15682;56.742;38.866;2022-11-15T02:45:27;4.8;;;1.0;;
28455;SDS011;15682;56.742;38.866;2022-11-15T02:47:27;9.9;;;1.2;;
28455;SDS011;15682;56.742;38.866;2022-11-15T02:49:27;6.3;;;1.0;;
28455;SDS011;15682;56.742;38.866;2022-11-15T02:51:26;6.3;;;1.2;;
28455;SDS011;15682;56.742;38.866;2022-11-15T02:53:26;5.1;;;1.1;;
28455;SDS011;15682;56.742;38.866;2022-11-15T02:55:27;6.9;;;1.3;;
28455;SDS011;15682;56.742;38.866;2022-11-15T02:57:39;8.7;;;1.0;;
28455;SDS011;15682;56.742;38.866;2022-11-15T02:59:32;7.1;;;1.1;;
28455;SDS011;15682;56.742;38.866;2022-11-15T03:01:29;3.9;;;1.0;;
28455;SDS011;15682;56.742;38.866;2022-11-15T03:03:31;5.4;;;1.0;;
28455;SDS011;15682;56.742;38.866;2022-11-15T03:05:27;10.1;;;1.3;;
28455;SDS011;15682;56.742;38.866;2022-11-15T03:07:27;8.2;;;1.0;;
28455;SDS011;15682;56.742;38.866;2022-11-15T03:09:28;10.6;;;1.3;;
28455;SDS011;15682;56.742;38.866;2022-11-15T03:11:25;5.9;;;1.3;;
28455;SDS011;15682;56.742;38.866;2022-11-15T03:13:25;5.9;;;1.3;;
28455;SDS011;15682;56.742;38.866;2022-11-15T03:15:26;6.2;;;1.0;;
28455;SDS011;15682;56.742;38.866;2022-11-15T03:17:25;5.2;;;1.1;;
28455;SDS011;15682;56.742;38.866;2022-11-15T03:19:26;7.2;;;1.3;;
28455;SDS011;15682;56.742;38.866;2022-11-15T03:21:24;6.2;;;1.2;;
28455;SDS011;15682;56.742;38.866;2022-11-15T03:23:24;5.0;;;1.1;;
28455;SDS011;15682;56.742;38.866;2022-11-15T03:25:24;5.5;;;1.0;;
28455;SDS011;15682;56.742;38.866;2022-11-15T03:27:24;9.9;;;1.3;;
28455;SDS011;15682;56.742;38.866;2022-11-15T03:29:24;4.8;;;1.0;;
28455;SDS011;15682;56.742;38.866;2022-11-15T03:31:23;5.1;;;1.1;;
28455;SDS011;15682;56.742;38.866;2022-11-15T03:33:23;6.2;;;1.2;;
28455;SDS011;15682;56.742;38.866;2022-11-15T03:35:24;4.9;;;1.1;;
28455;SDS011;15682;56.742;38.866;2022-11-15T03:37:24;7.4;;;1.3;;
28455;SDS011;15682;56.742;38.866;2022-11-15T03:39:23;4.1;;;1.2;;
28455;SDS011;15682;56.742;38.866;2022-11-15T03:41:24;5.9;;;1.2;;
28455;SDS011;15682;56.742;38.866;2022-11-15T03:43:24;7.5;;;1.4;;
28455;SDS011;15682;56.742;38.866;2022-11-15T03:45:23;7.4;;;1.1;;
28455;SDS011;15682;56.742;38.866;2022-11-15T03:47:23;3.5;;;1.1;;
28455;SDS011;15682;56.742;38.866;2022-11-15T03:49:23;4.7;;;1.1;;
28455;SDS011;15682;56.742;38.866;2022-11-15T03:51:22;6.9;;;1.1;;
28455;SDS011;15682;56.742;38.866;2022-11-15T03:53:22;4.1;;;1.0;;
28455;SDS011;15682;56.742;38.866;2022-11-15T03:55:22;5.0;;;1.0;;
28455;SDS011;15682;56.742;38.866;2022-11-15T03:57:21;6.3;;;1.2;;
28455;SDS011;15682;56.742;38.866;2022-11-15T03:59:21;6.6;;;1.2;;
28455;SDS011;15682;56.742;38.866;2022-11-15T04:01:21;4.5;;;1.2;;
28455;SDS011;15682;56.742;38.866;2022-11-15T04:03:21;10.6;;;3.4;;
28455;SDS011;15682;56.742;38.866;2022-11-15T04:05:22;19.3;;;6.5;;
28455;SDS011;15682;56.742;38.866;2022-11-15T04:07:21;9.2;;;3.1;;
28455;SDS011;15682;56.742;38.866;2022-11-15T04:09:21;7.1;;;2.4;;
28455;SDS011;15682;56.742;38.866;2022-11-15T04:11:20;12.1;;;2.6;;
28455;SDS011;15682;56.742;38.866;2022-11-15T04:13:20;16.2;;;5.8;;
28455;SDS011;15682;56.742;38.866;2022-11-15T04:15:21;17.0;;;6.4;;
28455;SDS011;15682;56.742;38.866;2022-11-15T04:17:20;14.0;;;4.9;;
28455;SDS011;15682;56.742;38.866;2022-11-15T04:19:20;11.2;;;4.1;;
28455;SDS011;15682;56.742;38.866;2022-11-15T04:21:20;7.9;;;2.3;;
28455;SDS011;15682;56.742;38.866;2022-11-15T04:23:20;9.1;;;1.7;;
28455;SDS011;15682;56.742;38.866;2022-11-15T04:25:20;7.9;;;1.5;;
28455;SDS011;15682;56.742;38.866;2022-11-15T04:27:20;15.0;;;1.7;;
28455;SDS011;15682;56.742;38.866;2022-11-15T04:29:19;5.6;;;1.4;;
28455;SDS011;15682;56.742;38.866;2022-11-15T04:31:19;8.2;;;1.4;;
28455;SDS011;15682;56.742;38.866;2022-11-15T04:33:19;4.3;;;1.4;;
28455;SDS011;15682;56.742;38.866;2022-11-15T04:35:19;6.6;;;1.3;;
28455;SDS011;15682;56.742;38.866;2022-11-15T04:37:19;22.7;;;3.4;;
28455;SDS011;15682;56.742;38.866;2022-11-15T04:39:19;15.1;;;2.3;;
28455;SDS011;15682;56.742;38.866;2022-11-15T04:41:19;9.9;;;1.8;;
28455;SDS011;15682;56.742;38.866;2022-11-15T04:43:19;14.3;;;1.7;;
28455;SDS011;15682;56.742;38.866;2022-11-15T04:45:19;9.6;;;1.4;;
28455;SDS011;15682;56.742;38.866;2022-11-15T04:47:18;12.7;;;1.8;;
28455;SDS011;15682;56.742;38.866;2022-11-15T04:49:18;10.3;;;1.8;;
28455;SDS011;15682;56.742;38.866;2022-11-15T04:51:18;7.9;;;1.6;;
28455;SDS011;15682;56.742;38.866;2022-11-15T04:53:18;32.9;;;2.1;;
28455;SDS011;15682;56.742;38.866;2022-11-15T04:55:18;11.8;;;1.5;;
28455;SDS011;15682;56.742;38.866;2022-11-15T04:57:18;9.9;;;2.9;;
28455;SDS011;15682;56.742;38.866;2022-11-15T04:59:18;15.3;;;1.8;;
28455;SDS011;15682;56.742;38.866;2022-11-15T05:01:18;26.8;;;2.7;;
28455;SDS011;15682;56.742;38.866;2022-11-15T05:03:17;18.4;;;1.9;;
28455;SDS011;15682;56.742;38.866;2022-11-15T05:05:17;15.7;;;2.1;;
28455;SDS011;15682;56.742;38.866;2022-11-15T05:07:17;12.4;;;1.2;;
28455;SDS011;15682;56.742;38.866;2022-11-15T05:09:17;14.0;;;1.8;;
28455;SDS011;15682;56.742;38.866;2022-11-15T05:11:17;7.4;;;1.5;;
28455;SDS011;15682;56.742;38.866;2022-11-15T05:13:17;6.5;;;1.3;;
28455;SDS011;15682;56.742;38.866;2022-11-15T05:15:17;9.2;;;1.7;;
28455;SDS011;15682;56.742;38.866;2022-11-15T05:17:17;21.3;;;2.6;;
28455;SDS011;15682;56.742;38.866;2022-11-15T05:19:17;15.5;;;2.5;;
28455;SDS011;15682;56.742;38.866;2022-11-15T05:21:17;11.1;;;2.1;;
28455;SDS011;15682;56.742;38.866;2022-11-15T05:23:16;14.1;;;2.1;;
28455;SDS011;15682;56.742;38.866;2022-11-15T05:25:16;12.9;;;1.9;;
28455;SDS011;15682;56.742;38.866;2022-11-15T05:27:16;9.0;;;1.6;;
28455;SDS011;15682;56.742;38.866;2022-11-15T05:29:16;18.4;;;1.7;;
28455;SDS011;15682;56.742;38.866;2022-11-15T05:31:16;14.6;;;1.9;;
28455;SDS011;15682;56.742;38.866;2022-11-15T05:33:16;16.0;;;2.0;;
28455;SDS011;15682;56.742;38.866;2022-11-15T05:35:17;18.1;;;2.4;;
28455;SDS011;15682;56.742;38.866;2022-11-15T05:37:16;14.9;;;5.0;;
28455;SDS011;15682;56.742;38.866;2022-11-15T05:39:16;23.1;;;9.3;;
28455;SDS011;15682;56.742;38.866;2022-11-15T05:41:16;31.5;;;11.3;;
28455;SDS011;15682;56.742;38.866;2022-11-15T05:43:15;24.7;;;10.3;;
28455;SDS011;15682;56.742;38.866;2022-11-15T05:45:16;13.7;;;3.1;;
28455;SDS011;15682;56.742;38.866;2022-11-15T05:47:16;42.4;;;6.9;;
28455;SDS011;15682;56.742;38.866;2022-11-15T05:49:16;8.4;;;2.2;;
28455;SDS011;15682;56.742;38.866;2022-11-15T05:51:15;29.8;;;4.5;;
28455;SDS011;15682;56.742;38.866;2022-11-15T05:53:16;15.6;;;2.0;;
28455;SDS011;15682;56.742;38.866;2022-11-15T05:55:15;9.7;;;1.8;;
28455;SDS011;15682;56.742;38.866;2022-11-15T05:57:15;11.6;;;1.6;;
28455;SDS011;15682;56.742;38.866;2022-11-15T05:59:15;9.4;;;1.4;;
28455;SDS011;15682;56.742;38.866;2022-11-15T06:01:15;9.3;;;1.6;;
28455;SDS011;15682;56.742;38.866;2022-11-15T06:03:15;7.9;;;1.5;;
28455;SDS011;15682;56.742;38.866;2022-11-15T06:05:15;7.8;;;1.8;;
28455;SDS011;15682;56.742;38.866;2022-11-15T06:07:14;12.6;;;1.9;;
28455;SDS011;15682;56.742;38.866;2022-11-15T06:09:14;6.5;;;1.6;;
28455;SDS011;15682;56.742;38.866;2022-11-15T06:11:14;4.6;;;1.4;;
28455;SDS011;15682;56.742;38.866;2022-11-15T06:13:14;7.5;;;1.4;;
28455;SDS011;15682;56.742;38.866;2022-11-15T06:15:14;7.5;;;1.7;;
28455;SDS011;15682;56.742;38.866;2022-11-15T06:17:14;8.3;;;1.5;;
28455;SDS011;15682;56.742;38.866;2022-11-15T06:19:14;8.7;;;1.7;;
28455;SDS011;15682;56.742;38.866;2022-11-15T06:21:14;6.1;;;1.5;;
28455;SDS011;15682;56.742;38.866;2022-11-15T06:23:14;4.3;;;1.5;;
28455;SDS011;15682;56.742;38.866;2022-11-15T06:25:14;11.6;;;1.8;;
28455;SDS011;15682;56.742;38.866;2022-11-15T06:27:14;9.6;;;1.8;;
28455;SDS011;15682;56.742;38.866;2022-11-15T06:29:14;35.5;;;2.4;;
28455;SDS011;15682;56.742;38.866;2022-11-15T06:31:13;28.1;;;2.1;;
28455;SDS011;15682;56.742;38.866;2022-11-15T06:33:13;19.8;;;2.3;;
28455;SDS011;15682;56.742;38.866;2022-11-15T06:35:14;16.9;;;1.9;;
28455;SDS011;15682;56.742;38.866;2022-11-15T06:37:13;14.2;;;2.0;;
28455;SDS011;15682;56.742;38.866;2022-11-15T06:39:13;10.7;;;1.6;;
28455;SDS011;15682;56.742;38.866;2022-11-15T06:41:14;13.1;;;1.9;;
28455;SDS011;15682;56.742;38.866;2022-11-15T06:43:13;10.0;;;1.6;;
28455;SDS011;15682;56.742;38.866;2022-11-15T06:45:13;10.8;;;2.5;;
28455;SDS011;15682;56.742;38.866;2022-11-15T06:47:13;11.9;;;2.0;;
28455;SDS011;15682;56.742;38.866;2022-11-15T06:49:13;10.7;;;2.0;;
28455;SDS011;15682;56.742;38.866;2022-11-15T06:51:13;11.1;;;2.4;;
28455;SDS011;15682;56.742;38.866;2022-11-15T06:53:13;14.6;;;2.2;;
28455;SDS011;15682;56.742;38.866;2022-11-15T06:55:13;23.6;;;2.2;;
28455;SDS011;15682;56.742;38.866;2022-11-15T06:57:13;14.0;;;2.0;;
28455;SDS011;15682;56.742;38.866;2022-11-15T06:59:12;12.4;;;2.0;;
28455;SDS011;15682;56.742;38.866;2022-11-15T07:01:12;11.6;;;1.9;;
28455;SDS011;15682;56.742;38.866;2022-11-15T07:03:12;19.3;;;2.1;;
28455;SDS011;15682;56.742;38.866;2022-11-15T07:05:12;14.4;;;2.2;;
28455;SDS011;15682;56.742;38.866;2022-11-15T07:07:12;8.9;;;1.9;;
28455;SDS011;15682;56.742;38.866;2022-11-15T07:09:12;14.4;;;2.1;;
28455;SDS011;15682;56.742;38.866;2022-11-15T07:11:12;16.3;;;1.9;;
28455;SDS011;15682;56.742;38.866;2022-11-15T07:13:12;24.9;;;3.3;;
28455;SDS011;15682;56.742;38.866;2022-11-15T07:15:12;24.2;;;2.6;;
28455;SDS011;15682;56.742;38.866;2022-11-15T07:17:12;11.6;;;1.9;;
28455;SDS011;15682;56.742;38.866;2022-11-15T07:19:12;9.1;;;2.0;;
28455;SDS011;15682;56.742;38.866;2022-11-15T07:21:12;15.2;;;2.1;;
28455;SDS011;15682;56.742;38.866;2022-11-15T07:23:12;14.7;;;2.4;;
28455;SDS011;15682;56.742;38.866;2022-11-15T07:25:11;18.5;;;2.3;;
28455;SDS011;15682;56.742;38.866;2022-11-15T07:27:11;14.2;;;2.2;;
28455;SDS011;15682;56.742;38.866;2022-11-15T07:29:11;11.9;;;1.9;;
28455;SDS011;15682;56.742;38.866;2022-11-15T07:31:11;9.9;;;1.7;;
28455;SDS011;15682;56.742;38.866;2022-11-15T07:33:11;10.2;;;2.3;;
28455;SDS011;15682;56.742;38.866;2022-11-15T07:35:11;13.1;;;2.3;;
28455;SDS011;15682;56.742;38.866;2022-11-15T07:37:11;9.0;;;1.9;;
28455;SDS011;15682;56.742;38.866;2022-11-15T07:39:11;6.4;;;1.6;;
28455;SDS011;15682;56.742;38.866;2022-11-15T07:41:11;14.2;;;2.2;;
28455;SDS011;15682;56.742;38.866;2022-11-15T07:43:11;12.1;;;3.1;;
28455;SDS011;15682;56.742;38.866;2022-11-15T07:45:11;11.5;;;2.5;;
28455;SDS011;15682;56.742;38.866;2022-11-15T07:47:11;5.6;;;1.6;;
28455;SDS011;15682;56.742;38.866;2022-11-15T07:49:11;4.4;;;1.8;;
28455;SDS011;15682;56.742;38.866;2022-11-15T07:51:11;7.0;;;1.6;;
28455;SDS011;15682;56.742;38.866;2022-11-15T07:53:11;16.1;;;4.5;;
28455;SDS011;15682;56.742;38.866;2022-11-15T07:55:11;11.5;;;3.7;;
28455;SDS011;15682;56.742;38.866;2022-11-15T07:57:10;12.5;;;2.0;;
28455;SDS011;15682;56.742;38.866;2022-11-15T07:59:10;8.9;;;2.1;;
28455;SDS011;15682;56.742;38.866;2022-11-15T08:01:10;6.6;;;2.0;;
28455;SDS011;15682;56.742;38.866;2022-11-15T08:03:11;11.3;;;3.4;;
28455;SDS011;15682;56.742;38.866;2022-11-15T08:05:10;15.4;;;5.1;;
28455;SDS011;15682;56.742;38.866;2022-11-15T08:07:10;12.6;;;2.5;;
28455;SDS011;15682;56.742;38.866;2022-11-15T08:09:10;15.2;;;3.6;;
28455;SDS011;15682;56.742;38.866;2022-11-15T08:11:10;12.4;;;2.5;;
28455;SDS011;15682;56.742;38.866;2022-11-15T08:13:11;12.8;;;5.4;;
28455;SDS011;15682;56.742;38.866;2022-11-15T08:15:10;11.5;;;3.1;;
28455;SDS011;15682;56.742;38.866;2022-11-15T08:17:10;19.4;;;5.0;;
28455;SDS011;15682;56.742;38.866;2022-11-15T08:19:09;15.0;;;3.1;;
28455;SDS011;15682;56.742;38.866;2022-11-15T08:21:09;11.2;;;2.9;;
28455;SDS011;15682;56.742;38.866;2022-11-15T08:23:10;15.4;;;3.4;;
28455;SDS011;15682;56.742;38.866;2022-11-15T08:25:09;12.7;;;2.9;;
28455;SDS011;15682;56.742;38.866;2022-11-15T08:27:09;11.8;;;3.3;;
28455;SDS011;15682;56.742;38.866;2022-11-15T08:29:09;9.3;;;2.2;;
28455;SDS011;15682;56.742;38.866;2022-11-15T08:31:12;7.5;;;1.4;;
28455;SDS011;15682;56.742;38.866;2022-11-15T08:33:10;5.3;;;1.5;;
28455;SDS011;15682;56.742;38.866;2022-11-15T08:35:09;4.4;;;1.4;;
28455;SDS011;15682;56.742;38.866;2022-11-15T08:37:09;5.9;;;1.8;;
28455;SDS011;15682;56.742;38.866;2022-11-15T08:39:10;15.8;;;2.1;;
28455;SDS011;15682;56.742;38.866;2022-11-15T08:41:10;4.5;;;1.4;;
28455;SDS011;15682;56.742;38.866;2022-11-15T08:43:09;8.8;;;1.4;;
28455;SDS011;15682;56.742;38.866;2022-11-15T08:45:09;6.7;;;1.6;;
28455;SDS011;15682;56.742;38.866;2022-11-15T08:47:10;7.2;;;1.4;;
28455;SDS011;15682;56.742;38.866;2022-11-15T08:49:08;19.9;;;1.8;;
28455;SDS011;15682;56.742;38.866;2022-11-15T08:51:08;12.3;;;1.5;;
28455;SDS011;15682;56.742;38.866;2022-11-15T08:53:08;9.1;;;1.8;;
28455;SDS011;15682;56.742;38.866;2022-11-15T08:55:08;5.9;;;1.6;;
28455;SDS011;15682;56.742;38.866;2022-11-15T08:57:08;6.9;;;1.7;;
28455;SDS011;15682;56.742;38.866;2022-11-15T08:59:08;6.2;;;1.6;;
28455;SDS011;15682;56.742;38.866;2022-11-15T09:01:13;40.2;;;2.3;;
28455;SDS011;15682;56.742;38.866;2022-11-15T09:03:08;4.6;;;1.5;;
28455;SDS011;15682;56.742;38.866;2022-11-15T09:05:08;6.2;;;1.5;;
28455;SDS011;15682;56.742;38.866;2022-11-15T09:07:08;5.9;;;1.3;;
28455;SDS011;15682;56.742;38.866;2022-11-15T09:09:08;10.6;;;1.8;;
28455;SDS011;15682;56.742;38.866;2022-11-15T09:11:08;7.5;;;1.8;;
28455;SDS011;15682;56.742;38.866;2022-11-15T09:13:07;8.2;;;2.5;;
28455;SDS011;15682;56.742;38.866;2022-11-15T09:15:08;17.2;;;4.4;;
28455;SDS011;15682;56.742;38.866;2022-11-15T09:17:07;11.3;;;3.3;;
28455;SDS011;15682;56.742;38.866;2022-11-15T09:19:07;8.9;;;2.4;;
28455;SDS011;15682;56.742;38.866;2022-11-15T09:21:08;8.4;;;1.7;;
28455;SDS011;15682;56.742;38.866;2022-11-15T09:23:07;5.3;;;1.7;;
28455;SDS011;15682;56.742;38.866;2022-11-15T09:25:07;9.9;;;2.0;;
28455;SDS011;15682;56.742;38.866;2022-11-15T09:27:07;4.7;;;1.5;;
28455;SDS011;15682;56.742;38.866;2022-11-15T09:29:07;7.6;;;1.5;;
28455;SDS011;15682;56.742;38.866;2022-11-15T09:31:07;5.6;;;1.8;;
28455;SDS011;15682;56.742;38.866;2022-11-15T09:33:07;15.8;;;4.7;;
28455;SDS011;15682;56.742;38.866;2022-11-15T09:35:07;10.2;;;2.2;;
28455;SDS011;15682;56.742;38.866;2022-11-15T09:37:06;9.7;;;1.4;;
28455;SDS011;15682;56.742;38.866;2022-11-15T09:39:06;10.9;;;1.7;;
28455;SDS011;15682;56.742;38.866;2022-11-15T09:41:24;6.9;;;1.9;;
28455;SDS011;15682;56.742;38.866;2022-11-15T09:43:10;8.2;;;1.7;;
28455;SDS011;15682;56.742;38.866;2022-11-15T09:45:10;11.8;;;2.0;;
28455;SDS011;15682;56.742;38.866;2022-11-15T09:47:10;10.5;;;2.3;;
28455;SDS011;15682;56.742;38.866;2022-11-15T09:49:06;38.2;;;2.7;;
28455;SDS011;15682;56.742;38.866;2022-11-15T09:51:08;8.8;;;1.8;;
28455;SDS011;15682;56.742;38.866;2022-11-15T09:53:08;8.7;;;2.1;;
28455;SDS011;15682;56.742;38.866;2022-11-15T09:55:07;17.1;;;2.8;;
28455;SDS011;15682;56.742;38.866;2022-11-15T09:57:09;13.1;;;5.0;;
28455;SDS011;15682;56.742;38.866;2022-11-15T09:59:13;13.0;;;4.9;;
28455;SDS011;15682;56.742;38.866;2022-11-15T10:01:07;9.0;;;2.4;;
28455;SDS011;15682;56.742;38.866;2022-11-15T10:03:10;10.7;;;2.6;;
28455;SDS011;15682;56.742;38.866;2022-11-15T10:05:06;6.4;;;1.8;;
28455;SDS011;15682;56.742;38.866;2022-11-15T10:07:08;8.1;;;1.7;;
28455;SDS011;15682;56.742;38.866;2022-11-15T10:09:06;8.3;;;1.7;;
28455;SDS011;15682;56.742;38.866;2022-11-15T10:11:06;5.0;;;1.8;;
28455;SDS011;15682;56.742;38.866;2022-11-15T10:13:06;4.2;;;1.7;;
28455;SDS011;15682;56.742;38.866;2022-11-15T10:15:06;10.3;;;2.2;;
28455;SDS011;15682;56.742;38.866;2022-11-15T10:17:12;5.9;;;2.0;;
28455;SDS011;15682;56.742;38.866;2022-11-15T10:19:07;20.3;;;2.2;;
28455;SDS011;15682;56.742;38.866;2022-11-15T10:21:09;5.2;;;1.7;;
28455;SDS011;15682;56.742;38.866;2022-11-15T10:23:05;6.6;;;1.9;;
28455;SDS011;15682;56.742;38.866;2022-11-15T10:25:15;25.5;;;4.1;;
28455;SDS011;15682;56.742;38.866;2022-11-15T10:27:07;6.9;;;1.9;;
28455;SDS011;15682;56.742;38.866;2022-11-15T10:29:05;5.7;;;1.7;;
28455;SDS011;15682;56.742;38.866;2022-11-15T10:31:10;11.0;;;1.8;;
28455;SDS011;15682;56.742;38.866;2022-11-15T10:33:13;7.7;;;1.8;;
28455;SDS011;15682;56.742;38.866;2022-11-15T10:35:15;4.0;;;1.7;;
28455;SDS011;15682;56.742;38.866;2022-11-15T10:37:04;5.0;;;2.1;;
28455;SDS011;15682;56.742;38.866;2022-11-15T10:39:04;5.7;;;1.9;;
28455;SDS011;15682;56.742;38.866;2022-11-15T10:41:06;7.2;;;1.8;;
28455;SDS011;15682;56.742;38.866;2022-11-15T10:43:05;5.6;;;1.8;;
28455;SDS011;15682;56.742;38.866;2022-11-15T10:45:08;21.5;;;2.3;;
28455;SDS011;15682;56.742;38.866;2022-11-15T10:47:16;11.0;;;1.9;;
28455;SDS011;15682;56.742;38.866;2022-11-15T10:49:11;14.6;;;1.9;;
28455;SDS011;15682;56.742;38.866;2022-11-15T10:51:04;8.9;;;1.8;;
28455;SDS011;15682;56.742;38.866;2022-11-15T10:53:04;9.7;;;2.0;;
28455;SDS011;15682;56.742;38.866;2022-11-15T10:55:12;11.2;;;2.0;;
28455;SDS011;15682;56.742;38.866;2022-11-15T10:57:05;10.0;;;2.0;;
28455;SDS011;15682;56.742;38.866;2022-11-15T10:59:04;7.4;;;1.8;;
28455;SDS011;15682;56.742;38.866;2022-11-15T11:01:12;17.4;;;2.3;;
28455;SDS011;15682;56.742;38.866;2022-11-15T11:03:04;6.6;;;1.9;;
28455;SDS011;15682;56.742;38.866;2022-11-15T11:05:05;12.6;;;2.0;;
28455;SDS011;15682;56.742;38.866;2022-11-15T11:07:08;18.9;;;5.1;;
28455;SDS011;15682;56.742;38.866;2022-11-15T11:09:05;14.3;;;2.8;;
28455;SDS011;15682;56.742;38.866;2022-11-15T11:11:04;18.1;;;2.9;;
28455;SDS011;15682;56.742;38.866;2022-11-15T11:15:09;12.7;;;2.1;;
28455;SDS011;15682;56.742;38.866;2022-11-15T11:17:05;11.3;;;2.1;;
28455;SDS011;15682;56.742;38.866;2022-11-15T11:19:05;17.7;;;2.9;;
28455;SDS011;15682;56.742;38.866;2022-11-15T11:21:05;11.5;;;2.4;;
28455;SDS011;15682;56.742;38.866;2022-11-15T11:23:19;15.9;;;2.7;;
28455;SDS011;15682;56.742;38.866;2022-11-15T11:25:07;25.4;;;3.1;;
28455;SDS011;15682;56.742;38.866;2022-11-15T11:27:08;18.6;;;2.8;;
28455;SDS011;15682;56.742;38.866;2022-11-15T11:29:06;17.4;;;2.6;;
28455;SDS011;15682;56.742;38.866;2022-11-15T11:31:06;14.3;;;3.4;;
28455;SDS011;15682;56.742;38.866;2022-11-15T11:33:05;21.6;;;2.5;;
28455;SDS011;15682;56.742;38.866;2022-11-15T11:35:05;14.5;;;2.4;;
28455;SDS011;15682;56.742;38.866;2022-11-15T11:37:03;13.4;;;2.5;;
28455;SDS011;15682;56.742;38.866;2022-11-15T11:39:07;12.6;;;2.7;;
28455;SDS011;15682;56.742;38.866;2022-11-15T11:41:05;20.9;;;2.6;;
28455;SDS011;15682;56.742;38.866;2022-11-15T11:43:04;13.5;;;3.1;;
28455;SDS011;15682;56.742;38.866;2022-11-15T11:45:05;14.4;;;3.4;;
28455;SDS011;15682;56.742;38.866;2022-11-15T11:47:03;22.8;;;3.0;;
28455;SDS011;15682;56.742;38.866;2022-11-15T11:49:03;14.1;;;2.6;;
28455;SDS011;15682;56.742;38.866;2022-11-15T11:51:05;12.9;;;3.4;;
28455;SDS011;15682;56.742;38.866;2022-11-15T11:53:03;38.2;;;7.9;;
28455;SDS011;15682;56.742;38.866;2022-11-15T11:55:03;13.8;;;3.9;;
28455;SDS011;15682;56.742;38.866;2022-11-15T11:57:02;23.5;;;3.5;;
28455;SDS011;15682;56.742;38.866;2022-11-15T11:59:05;13.5;;;3.4;;
28455;SDS011;15682;56.742;38.866;2022-11-15T12:01:11;12.1;;;3.2;;
28455;SDS011;15682;56.742;38.866;2022-11-15T12:03:03;17.6;;;2.7;;
28455;SDS011;15682;56.742;38.866;2022-11-15T12:05:04;8.9;;;2.7;;
28455;SDS011;15682;56.742;38.866;2022-11-15T12:07:02;10.8;;;3.0;;
28455;SDS011;15682;56.742;38.866;2022-11-15T12:09:03;9.6;;;3.2;;
28455;SDS011;15682;56.742;38.866;2022-11-15T12:11:04;11.5;;;2.8;;